| time (UTC) | temp C | wind direction | speed KPH | gust KPH | rain 1hr cm | rain 24hr cm | rain mn cm | humidity % | barometer mb |
| 20260510180201 | 20 | 34 | 27.4 | 30.6 | 0.00 | 0.00 | 0.00 | 43 | 1020.7 |
| 20260510175656 | 20 | 33 | 14.5 | 27.4 | 0.00 | 0.00 | 0.00 | 43 | 1020.5 |
| 20260510175152 | 20 | 21 | 4.8 | 25.7 | 0.00 | 0.00 | 0.00 | 44 | 1020.6 |
| 20260510174649 | 20 | 0 | 14.5 | 20.9 | 0.00 | 0.00 | 0.00 | 43 | 1020.6 |
| 20260510174147 | 20 | 52 | 17.7 | 24.1 | 0.00 | 0.00 | 0.00 | 45 | 1020.2 |
| 20260510173643 | 19 | 43 | 16.1 | 27.4 | 0.00 | 0.00 | 0.00 | 47 | 1020.1 |
| 20260510173139 | 20 | 41 | 29.0 | 32.2 | 0.00 | 0.00 | 0.00 | 45 | 1020.0 |
| 20260510172634 | 20 | 13 | 19.3 | 25.7 | 0.00 | 0.00 | 0.00 | 46 | 1020.1 |
| 20260510172131 | 19 | 26 | 24.1 | 32.2 | 0.00 | 0.00 | 0.00 | 47 | 1020.1 |
| 20260510171628 | 20 | 37 | 17.7 | 30.6 | 0.00 | 0.00 | 0.00 | 47 | 1020.2 |
| 20260510171126 | 19 | 29 | 9.7 | 24.1 | 0.00 | 0.00 | 0.00 | 50 | 1020.1 |
| 20260510170622 | 19 | 29 | 20.9 | 25.7 | 0.00 | 0.00 | 0.00 | 48 | 1020.0 |
| 20260510170118 | 18 | 25 | 9.7 | 27.4 | 0.00 | 0.00 | 0.00 | 49 | 1019.9 |
| 20260510165614 | 19 | 22 | 12.9 | 29.0 | 0.00 | 0.00 | 0.00 | 48 | 1020.0 |
| 20260510165110 | 18 | 27 | 14.5 | 35.4 | 0.00 | 0.00 | 0.00 | 50 | 1019.9 |
| 20260510164608 | 18 | 35 | 25.7 | 32.2 | 0.00 | 0.00 | 0.00 | 51 | 1019.8 |
| 20260510164104 | 18 | 29 | 11.3 | 24.1 | 0.00 | 0.00 | 0.00 | 51 | 1019.8 |
| 20260510163559 | 18 | 338 | 12.9 | 24.1 | 0.00 | 0.00 | 0.00 | 51 | 1019.8 |
| 20260510163056 | 18 | 36 | 19.3 | 29.0 | 0.00 | 0.00 | 0.00 | 53 | 1019.8 |
| 20260510162550 | 18 | 5 | 3.2 | 30.6 | 0.00 | 0.00 | 0.00 | 55 | 1019.8 |
| 20260510162047 | 18 | 22 | 22.5 | 29.0 | 0.00 | 0.00 | 0.00 | 54 | 1019.8 |
| 20260510161543 | 18 | 28 | 19.3 | 27.4 | 0.00 | 0.00 | 0.00 | 55 | 1019.9 |
| 20260510161040 | 18 | 1 | 8.0 | 24.1 | 0.00 | 0.00 | 0.00 | 55 | 1019.6 |
| 20260510160538 | 17 | 16 | 14.5 | 27.4 | 0.00 | 0.00 | 0.00 | 58 | 1019.6 |
| 20260510160037 | 17 | 17 | 14.5 | 25.7 | 0.00 | 0.00 | 0.00 | 58 | 1019.5 |
| 20260510155534 | 17 | 33 | 17.7 | 29.0 | 0.00 | 0.00 | 0.00 | 58 | 1019.3 |
| 20260510155030 | 17 | 29 | 29.0 | 35.4 | 0.00 | 0.00 | 0.00 | 57 | 1019.2 |
| 20260510154526 | 17 | 30 | 14.5 | 27.4 | 0.00 | 0.00 | 0.00 | 58 | 1019.3 |
| 20260510154021 | 17 | 29 | 27.4 | 33.8 | 0.00 | 0.00 | 0.00 | 59 | 1019.3 |
| 20260510153516 | 17 | 33 | 20.9 | 24.1 | 0.00 | 0.00 | 0.00 | 61 | 1019.2 |
| 20260510153013 | 17 | 18 | 11.3 | 25.7 | 0.00 | 0.00 | 0.00 | 60 | 1019.0 |
| 20260510152511 | 17 | 39 | 11.3 | 22.5 | 0.00 | 0.00 | 0.00 | 59 | 1019.1 |
| 20260510152007 | 17 | 34 | 24.1 | 29.0 | 0.00 | 0.00 | 0.00 | 58 | 1019.0 |
| 20260510151503 | 17 | 30 | 19.3 | 27.4 | 0.00 | 0.00 | 0.00 | 60 | 1019.0 |
| 20260510151000 | 17 | 44 | 17.7 | 29.0 | 0.00 | 0.00 | 0.00 | 62 | 1019.2 |
| 20260510150455 | 17 | 30 | 16.1 | 30.6 | 0.00 | 0.00 | 0.00 | 66 | 1019.2 |
| 20260510145951 | 17 | 35 | 16.1 | 25.7 | 0.00 | 0.00 | 0.00 | 68 | 1019.3 |
| 20260510145448 | 17 | 38 | 9.7 | 25.7 | 0.00 | 0.00 | 0.00 | 70 | 1019.2 |
| 20260510144944 | 17 | 322 | 8.0 | 25.7 | 0.00 | 0.00 | 0.00 | 69 | 1019.2 |
| 20260510144441 | 17 | 28 | 12.9 | 20.9 | 0.00 | 0.00 | 0.00 | 71 | 1019.6 |
| 20260510143937 | 17 | 32 | 11.3 | 14.5 | 0.00 | 0.00 | 0.00 | 71 | 1019.3 |
| 20260510143433 | 17 | 26 | 22.5 | 29.0 | 0.00 | 0.00 | 0.00 | 71 | 1019.4 |
| 20260510142930 | 17 | 13 | 11.3 | 17.7 | 0.00 | 0.00 | 0.00 | 72 | 1019.3 |
| 20260510142427 | 17 | 34 | 14.5 | 19.3 | 0.00 | 0.00 | 0.00 | 72 | 1019.3 |
| 20260510141923 | 16 | 29 | 17.7 | 25.7 | 0.00 | 0.00 | 0.00 | 72 | 1019.4 |
| 20260510141420 | 17 | 25 | 17.7 | 24.1 | 0.00 | 0.00 | 0.00 | 72 | 1019.5 |
| 20260510140917 | 17 | 20 | 14.5 | 17.7 | 0.00 | 0.00 | 0.00 | 72 | 1019.3 |
| 20260510140414 | 17 | 45 | 19.3 | 22.5 | 0.00 | 0.00 | 0.00 | 73 | 1019.3 |
| 20260510135913 | 16 | 26 | 19.3 | 22.5 | 0.00 | 0.00 | 0.00 | 73 | 1019.1 |
| 20260510135410 | 16 | 24 | 16.1 | 24.1 | 0.00 | 0.00 | 0.00 | 74 | 1018.9 |
| 20260510134907 | 16 | 33 | 24.1 | 27.4 | 0.00 | 0.00 | 0.00 | 74 | 1018.9 |
| 20260510134403 | 16 | 32 | 17.7 | 27.4 | 0.00 | 0.00 | 0.00 | 74 | 1018.8 |
| 20260510133859 | 16 | 28 | 11.3 | 29.0 | 0.00 | 0.00 | 0.00 | 74 | 1018.6 |
| 20260510133355 | 16 | 28 | 24.1 | 29.0 | 0.00 | 0.00 | 0.00 | 73 | 1018.7 |
| 20260510132851 | 16 | 7 | 14.5 | 25.7 | 0.00 | 0.00 | 0.00 | 74 | 1018.8 |
| 20260510132349 | 16 | 25 | 17.7 | 30.6 | 0.00 | 0.00 | 0.00 | 74 | 1018.6 |
| 20260510131846 | 16 | 19 | 14.5 | 27.4 | 0.00 | 0.00 | 0.00 | 73 | 1018.4 |
| 20260510131343 | 16 | 24 | 16.1 | 27.4 | 0.00 | 0.00 | 0.00 | 74 | 1018.1 |
| 20260510130839 | 16 | 18 | 9.7 | 25.7 | 0.00 | 0.00 | 0.00 | 75 | 1018.1 |
| 20260510130337 | 16 | 38 | 17.7 | 27.4 | 0.00 | 0.00 | 0.00 | 74 | 1018.3 |
| 20260510125833 | 16 | 16 | 16.1 | 27.4 | 0.00 | 0.00 | 0.00 | 75 | 1018.1 |
| 20260510125329 | 16 | 31 | 20.9 | 29.0 | 0.00 | 0.00 | 0.00 | 76 | 1017.8 |
| 20260510124826 | 16 | 39 | 19.3 | 20.9 | 0.00 | 0.00 | 0.00 | 77 | 1017.8 |
| 20260510124323 | 16 | 31 | 19.3 | 27.4 | 0.00 | 0.00 | 0.00 | 78 | 1017.8 |
| 20260510123819 | 16 | 38 | 12.9 | 22.5 | 0.00 | 0.00 | 0.00 | 79 | 1017.6 |
| 20260510123315 | 16 | 32 | 14.5 | 22.5 | 0.00 | 0.00 | 0.00 | 79 | 1017.4 |
| 20260510122811 | 15 | 27 | 17.7 | 24.1 | 0.00 | 0.00 | 0.00 | 80 | 1017.5 |
| 20260510122307 | 15 | 35 | 24.1 | 25.7 | 0.00 | 0.00 | 0.00 | 80 | 1017.5 |
| 20260510121804 | 15 | 31 | 9.7 | 22.5 | 0.00 | 0.00 | 0.00 | 80 | 1017.4 |
| 20260510121302 | 15 | 30 | 17.7 | 24.1 | 0.00 | 0.00 | 0.00 | 80 | 1016.9 |
| 20260510120758 | 15 | 36 | 14.5 | 20.9 | 0.00 | 0.00 | 0.00 | 82 | 1017.0 |
| 20260510120255 | 15 | 36 | 11.3 | 17.7 | 0.00 | 0.00 | 0.00 | 82 | 1016.8 |
| 20260510115751 | 15 | 27 | 17.7 | 22.5 | 0.00 | 0.00 | 0.00 | 81 | 1016.9 |
| 20260510115250 | 15 | 26 | 16.1 | 22.5 | 0.00 | 0.00 | 0.00 | 80 | 1016.7 |
| 20260510114749 | 15 | 31 | 17.7 | 24.1 | 0.00 | 0.00 | 0.00 | 80 | 1016.7 |
| 20260510114248 | 15 | 30 | 11.3 | 17.7 | 0.00 | 0.00 | 0.00 | 80 | 1016.8 |
| 20260510113748 | 15 | 31 | 12.9 | 17.7 | 0.00 | 0.00 | 0.00 | 79 | 1016.6 |
| 20260510113245 | 15 | 29 | 14.5 | 19.3 | 0.00 | 0.00 | 0.00 | 78 | 1016.5 |
| 20260510112741 | 15 | 31 | 17.7 | 19.3 | 0.00 | 0.00 | 0.00 | 78 | 1016.2 |
| 20260510112238 | 15 | 38 | 12.9 | 17.7 | 0.00 | 0.00 | 0.00 | 77 | 1016.1 |
| 20260510111734 | 15 | 36 | 12.9 | 16.1 | 0.00 | 0.00 | 0.00 | 76 | 1016.0 |
| 20260510111231 | 15 | 24 | 11.3 | 17.7 | 0.00 | 0.00 | 0.00 | 76 | 1015.9 |
| 20260510110730 | 16 | 23 | 12.9 | 19.3 | 0.00 | 0.00 | 0.00 | 74 | 1015.9 |
| 20260510110229 | 16 | 29 | 14.5 | 17.7 | 0.00 | 0.00 | 0.00 | 73 | 1015.7 |
| 20260510105728 | 16 | 28 | 8.0 | 14.5 | 0.00 | 0.00 | 0.00 | 73 | 1015.8 |
| 20260510105223 | 16 | 28 | 9.7 | 12.9 | 0.00 | 0.00 | 0.00 | 73 | 1015.5 |
| 20260510104720 | 15 | 37 | 9.7 | 9.7 | 0.00 | 0.00 | 0.00 | 73 | 1015.6 |
| 20260510104218 | 15 | 18 | 4.8 | 8.0 | 0.00 | 0.00 | 0.00 | 74 | 1015.5 |
| 20260510103714 | 15 | 5 | 4.8 | 8.0 | 0.00 | 0.00 | 0.00 | 75 | 1015.6 |
| 20260510103211 | 15 | 13 | 4.8 | 6.4 | 0.00 | 0.00 | 0.00 | 77 | 1015.5 |
| 20260510102711 | 15 | 2 | 6.4 | 6.4 | 0.00 | 0.00 | 0.00 | 78 | 1015.7 |
| 20260510102207 | 15 | 34 | 1.6 | 3.2 | 0.00 | 0.00 | 0.00 | 78 | 1015.7 |
| 20260510101704 | 15 | 58 | 3.2 | 4.8 | 0.00 | 0.00 | 0.00 | 78 | 1015.7 |
| 20260510101203 | 15 | 53 | 3.2 | 3.2 | 0.00 | 0.00 | 0.00 | 78 | 1015.6 |
| 20260510100658 | 15 | 12 | 3.2 | 3.2 | 0.00 | 0.00 | 0.00 | 76 | 1015.6 |
| 20260510100156 | 15 | 326 | 4.8 | 6.4 | 0.00 | 0.00 | 0.00 | 76 | 1015.5 |
| 20260510095651 | 15 | 0 | 0.0 | 4.8 | 0.00 | 0.00 | 0.00 | 77 | 1015.5 |
| 20260510095147 | 15 | 48 | 0.0 | 3.2 | 0.00 | 0.00 | 0.00 | 78 | 1015.5 |
| 20260510094645 | 15 | 0 | 0.0 | 1.6 | 0.00 | 0.00 | 0.00 | 77 | 1015.3 |
| 20260510094141 | 15 | 40 | 0.0 | 1.6 | 0.00 | 0.00 | 0.00 | 77 | 1015.4 |
| 20260510093638 | 15 | 97 | 0.0 | 3.2 | 0.00 | 0.00 | 0.00 | 76 | 1015.2 |
| 20260510093135 | 15 | 355 | 0.0 | 3.2 | 0.00 | 0.00 | 0.00 | 77 | 1015.3 |
| 20260510092631 | 15 | 260 | 1.6 | 3.2 | 0.00 | 0.00 | 0.00 | 78 | 1015.1 |
| 20260510092127 | 15 | 279 | 0.0 | 1.6 | 0.00 | 0.00 | 0.00 | 77 | 1015.1 |
| 20260510091623 | 15 | 293 | 0.0 | 1.6 | 0.00 | 0.00 | 0.00 | 80 | 1014.9 |
| 20260510091119 | 15 | 161 | 3.2 | 3.2 | 0.00 | 0.00 | 0.00 | 78 | 1014.8 |
| 20260510090616 | 16 | 133 | 3.2 | 4.8 | 0.00 | 0.00 | 0.00 | 77 | 1014.7 |
| 20260510090112 | 15 | 76 | 3.2 | 3.2 | 0.00 | 0.00 | 0.00 | 76 | 1014.7 |
| 20260510085607 | 15 | 117 | 3.2 | 4.8 | 0.00 | 0.00 | 0.00 | 78 | 1014.5 |
| 20260510085103 | 15 | 167 | 1.6 | 3.2 | 0.00 | 0.00 | 0.00 | 77 | 1014.5 |
| 20260510084600 | 16 | 118 | 3.2 | 8.0 | 0.00 | 0.00 | 0.00 | 75 | 1014.6 |
| 20260510084056 | 16 | 93 | 1.6 | 1.6 | 0.00 | 0.00 | 0.00 | 72 | 1014.6 |
| 20260510083553 | 16 | 54 | 1.6 | 3.2 | 0.00 | 0.00 | 0.00 | 71 | 1014.5 |
| 20260510083049 | 16 | 98 | 1.6 | 3.2 | 0.00 | 0.00 | 0.00 | 70 | 1014.6 |
| 20260510082546 | 16 | 241 | 1.6 | 1.6 | 0.00 | 0.00 | 0.00 | 69 | 1014.6 |
| 20260510082042 | 17 | 189 | 3.2 | 6.4 | 0.00 | 0.00 | 0.00 | 68 | 1014.4 |
| 20260510081537 | 17 | 119 | 8.0 | 9.7 | 0.00 | 0.00 | 0.00 | 68 | 1014.5 |
| 20260510081033 | 18 | 54 | 4.8 | 8.0 | 0.00 | 0.00 | 0.00 | 62 | 1014.2 |
| 20260510080532 | 18 | 68 | 3.2 | 6.4 | 0.00 | 0.00 | 0.00 | 63 | 1014.3 |
| 20260510080029 | 18 | 90 | 6.4 | 9.7 | 0.00 | 0.00 | 0.00 | 62 | 1013.9 |
| 20260510075526 | 16 | 76 | 4.8 | 4.8 | 0.00 | 0.00 | 0.00 | 73 | 1014.1 |
| 20260510075023 | 16 | 88 | 3.2 | 3.2 | 0.00 | 0.00 | 0.00 | 72 | 1014.3 |
| 20260510074521 | 16 | 124 | 0.0 | 1.6 | 0.00 | 0.00 | 0.00 | 73 | 1014.6 |
| 20260510074016 | 17 | 177 | 0.0 | 6.4 | 0.00 | 0.00 | 0.00 | 72 | 1014.6 |
| 20260510073512 | 19 | 157 | 3.2 | 6.4 | 0.00 | 0.00 | 0.00 | 66 | 1014.5 |
| 20260510073009 | 18 | 70 | 4.8 | 8.0 | 0.00 | 0.00 | 0.00 | 61 | 1014.4 |
| 20260510072506 | 17 | 40 | 4.8 | 4.8 | 0.00 | 0.00 | 0.00 | 69 | 1014.3 |
| 20260510072001 | 17 | 1 | 3.2 | 3.2 | 0.00 | 0.00 | 0.00 | 70 | 1014.2 |
| 20260510071458 | 17 | 102 | 3.2 | 4.8 | 0.00 | 0.00 | 0.00 | 70 | 1014.1 |
| 20260510070956 | 16 | 103 | 4.8 | 4.8 | 0.00 | 0.00 | 0.00 | 72 | 1014.1 |
| 20260510070453 | 17 | 89 | 0.0 | 3.2 | 0.00 | 0.00 | 0.00 | 73 | 1014.1 |
| 20260510065949 | 17 | 88 | 4.8 | 6.4 | 0.00 | 0.00 | 0.00 | 71 | 1014.3 |
| 20260510065446 | 17 | 97 | 3.2 | 4.8 | 0.00 | 0.00 | 0.00 | 73 | 1014.5 |
| 20260510064942 | 17 | 99 | 3.2 | 4.8 | 0.00 | 0.00 | 0.00 | 69 | 1014.3 |
| 20260510064439 | 17 | 97 | 3.2 | 3.2 | 0.00 | 0.00 | 0.00 | 69 | 1014.2 |
| 20260510063936 | 17 | 69 | 0.0 | 1.6 | 0.00 | 0.00 | 0.00 | 68 | 1014.5 |
| 20260510063432 | 17 | 256 | 3.2 | 4.8 | 0.00 | 0.00 | 0.00 | 68 | 1014.4 |
| 20260510062930 | 17 | 348 | 6.4 | 9.7 | 0.00 | 0.00 | 0.00 | 67 | 1014.4 |
| 20260510062425 | 17 | 350 | 3.2 | 8.0 | 0.00 | 0.00 | 0.00 | 68 | 1014.4 |
| 20260510061921 | 17 | 0 | 24.1 | 27.4 | 0.00 | 0.00 | 0.00 | 66 | 1014.1 |
| 20260510061417 | 17 | 297 | 3.2 | 6.4 | 0.00 | 0.00 | 0.00 | 68 | 1014.2 |
| 20260510060913 | 17 | 86 | 1.6 | 3.2 | 0.00 | 0.00 | 0.00 | 67 | 1013.9 |
| 20260510060410 | 17 | 124 | 0.0 | 1.6 | 0.00 | 0.00 | 0.00 | 70 | 1014.0 |
| 20260510055907 | 17 | 102 | 1.6 | 3.2 | 0.00 | 0.00 | 0.00 | 69 | 1014.3 |
| 20260510055402 | 17 | 120 | 1.6 | 1.6 | 0.00 | 0.00 | 0.00 | 71 | 1014.3 |
| 20260510054900 | 17 | 217 | 0.0 | 0.0 | 0.00 | 0.00 | 0.00 | 69 | 1014.0 |
| 20260510054356 | 17 | 180 | 0.0 | 1.6 | 0.00 | 0.00 | 0.00 | 70 | 1014.3 |
| 20260510053851 | 17 | 230 | 0.0 | 1.6 | 0.00 | 0.00 | 0.00 | 69 | 1014.5 |
| 20260510053347 | 17 | 187 | 1.6 | 1.6 | 0.00 | 0.00 | 0.00 | 70 | 1014.3 |
| 20260510052843 | 17 | 153 | 0.0 | 3.2 | 0.00 | 0.00 | 0.00 | 70 | 1014.2 |
| 20260510052338 | 17 | 125 | 3.2 | 4.8 | 0.00 | 0.00 | 0.00 | 69 | 1014.2 |
| 20260510051835 | 17 | 134 | 4.8 | 6.4 | 0.00 | 0.00 | 0.00 | 68 | 1014.2 |
| 20260510051332 | 17 | 146 | 3.2 | 6.4 | 0.00 | 0.00 | 0.00 | 72 | 1014.2 |
| 20260510050830 | 17 | 126 | 3.2 | 4.8 | 0.00 | 0.00 | 0.00 | 73 | 1014.1 |
| 20260510050325 | 17 | 135 | 0.0 | 0.0 | 0.00 | 0.00 | 0.00 | 73 | 1014.2 |
| 20260510045823 | 17 | 89 | 0.0 | 0.0 | 0.00 | 0.00 | 0.00 | 74 | 1013.9 |
| 20260510045319 | 17 | 104 | 0.0 | 1.6 | 0.00 | 0.00 | 0.00 | 71 | 1014.1 |
| 20260510044816 | 18 | 139 | 1.6 | 3.2 | 0.00 | 0.00 | 0.00 | 69 | 1013.9 |
| 20260510044313 | 17 | 156 | 3.2 | 3.2 | 0.00 | 0.00 | 0.00 | 69 | 1013.9 |
| 20260510043809 | 18 | 245 | 1.6 | 3.2 | 0.00 | 0.00 | 0.00 | 70 | 1013.8 |
| 20260510043300 | 18 | 134 | 3.2 | 4.8 | 0.00 | 0.00 | 0.00 | 64 | 1013.8 |
| 20260510042758 | 18 | 128 | 6.4 | 6.4 | 0.00 | 0.00 | 0.00 | 67 | 1013.8 |
| 20260510042252 | 18 | 112 | 3.2 | 6.4 | 0.00 | 0.00 | 0.00 | 68 | 1013.6 |
| 20260510041744 | 17 | 133 | 3.2 | 3.2 | 0.00 | 0.00 | 0.00 | 69 | 1014.1 |
| 20260510041241 | 17 | 135 | 3.2 | 3.2 | 0.00 | 0.00 | 0.00 | 68 | 1014.0 |
| 20260510040739 | 17 | 124 | 0.0 | 0.0 | 0.00 | 0.00 | 0.00 | 70 | 1014.0 |
| 20260510040236 | 17 | 129 | 0.0 | 3.2 | 0.00 | 0.00 | 0.00 | 67 | 1013.8 |
| 20260510035730 | 18 | 193 | 1.6 | 3.2 | 0.00 | 0.00 | 0.00 | 63 | 1013.8 |
| 20260510035226 | 18 | 153 | 4.8 | 6.4 | 0.00 | 0.00 | 0.00 | 66 | 1013.7 |
| 20260510034723 | 18 | 130 | 3.2 | 3.2 | 0.00 | 0.00 | 0.00 | 64 | 1013.5 |
| 20260510034221 | 17 | 144 | 3.2 | 3.2 | 0.00 | 0.00 | 0.00 | 67 | 1013.4 |
| 20260510033716 | 18 | 133 | 1.6 | 3.2 | 0.00 | 0.00 | 0.00 | 64 | 1013.5 |
| 20260510033215 | 19 | 130 | 4.8 | 4.8 | 0.00 | 0.00 | 0.00 | 61 | 1013.5 |
| 20260510032710 | 19 | 138 | 3.2 | 4.8 | 0.00 | 0.00 | 0.00 | 61 | 1013.3 |
| 20260510032206 | 19 | 148 | 4.8 | 6.4 | 0.00 | 0.00 | 0.00 | 60 | 1013.3 |
| 20260510031702 | 20 | 153 | 4.8 | 4.8 | 0.00 | 0.00 | 0.00 | 59 | 1013.3 |
| 20260510031158 | 19 | 148 | 4.8 | 4.8 | 0.00 | 0.00 | 0.00 | 60 | 1013.2 |
| 20260510030652 | 18 | 130 | 3.2 | 3.2 | 0.00 | 0.00 | 0.00 | 62 | 1013.4 |
| 20260510030151 | 18 | 129 | 3.2 | 3.2 | 0.00 | 0.00 | 0.00 | 69 | 1013.2 |
| 20260510025648 | 18 | 130 | 1.6 | 3.2 | 0.00 | 0.00 | 0.00 | 68 | 1013.2 |
| 20260510025145 | 18 | 114 | 3.2 | 4.8 | 0.00 | 0.00 | 0.00 | 69 | 1013.1 |
| 20260510024642 | 18 | 87 | 1.6 | 3.2 | 0.00 | 0.00 | 0.00 | 71 | 1013.0 |
| 20260510024138 | 18 | 142 | 0.0 | 0.0 | 0.00 | 0.00 | 0.00 | 70 | 1013.0 |
| 20260510023634 | 18 | 142 | 0.0 | 0.0 | 0.00 | 0.00 | 0.00 | 68 | 1012.8 |
| 20260510023131 | 19 | 117 | 1.6 | 3.2 | 0.00 | 0.00 | 0.00 | 65 | 1012.7 |
| 20260510022631 | 20 | 147 | 0.0 | 3.2 | 0.00 | 0.00 | 0.00 | 66 | 1012.5 |
| 20260510022126 | 21 | 136 | 3.2 | 3.2 | 0.00 | 0.00 | 0.00 | 55 | 1012.2 |
| 20260510021622 | 20 | 146 | 3.2 | 3.2 | 0.00 | 0.00 | 0.00 | 56 | 1011.9 |
| 20260510021120 | 19 | 97 | 1.6 | 3.2 | 0.00 | 0.00 | 0.00 | 65 | 1011.8 |
| 20260510020613 | 20 | 110 | 3.2 | 3.2 | 0.00 | 0.00 | 0.00 | 63 | 1011.9 |
| 20260510020109 | 20 | 123 | 0.0 | 3.2 | 0.00 | 0.00 | 0.00 | 59 | 1011.8 |
| 20260510015605 | 20 | 113 | 3.2 | 3.2 | 0.00 | 0.00 | 0.00 | 59 | 1012.0 |
| 20260510015102 | 21 | 135 | 3.2 | 3.2 | 0.00 | 0.00 | 0.00 | 54 | 1011.6 |
| 20260510014557 | 20 | 132 | 1.6 | 3.2 | 0.00 | 0.00 | 0.00 | 60 | 1011.8 |
| 20260510014055 | 20 | 124 | 3.2 | 3.2 | 0.00 | 0.00 | 0.00 | 60 | 1011.5 |
| 20260510013550 | 21 | 136 | 3.2 | 3.2 | 0.00 | 0.00 | 0.00 | 54 | 1011.3 |
| 20260510013046 | 21 | 143 | 1.6 | 3.2 | 0.00 | 0.00 | 0.00 | 55 | 1011.5 |
| 20260510012545 | 22 | 158 | 1.6 | 3.2 | 0.00 | 0.00 | 0.00 | 52 | 1011.3 |
| 20260510012042 | 22 | 167 | 3.2 | 3.2 | 0.00 | 0.00 | 0.00 | 51 | 1011.3 |
| 20260510011541 | 22 | 170 | 1.6 | 3.2 | 0.00 | 0.00 | 0.00 | 51 | 1011.2 |
| 20260510011037 | 22 | 172 | 1.6 | 3.2 | 0.00 | 0.00 | 0.00 | 51 | 1011.3 |
| 20260510010534 | 23 | 163 | 1.6 | 3.2 | 0.00 | 0.00 | 0.00 | 51 | 1011.2 |
| 20260510010032 | 23 | 154 | 4.8 | 4.8 | 0.00 | 0.00 | 0.00 | 52 | 1011.0 |
| 20260510005527 | 23 | 138 | 4.8 | 4.8 | 0.00 | 0.00 | 0.00 | 48 | 1011.1 |
| 20260510005025 | 24 | 147 | 1.6 | 3.2 | 0.00 | 0.00 | 0.00 | 48 | 1011.0 |
| 20260510004522 | 25 | 173 | 6.4 | 6.4 | 0.00 | 0.00 | 0.00 | 42 | 1011.0 |
| 20260510004021 | 25 | 182 | 4.8 | 4.8 | 0.00 | 0.00 | 0.00 | 45 | 1010.8 |
| 20260510003517 | 25 | 166 | 3.2 | 4.8 | 0.00 | 0.00 | 0.00 | 48 | 1010.8 |
| 20260510003012 | 25 | 139 | 3.2 | 4.8 | 0.00 | 0.00 | 0.00 | 48 | 1010.6 |
| 20260510002508 | 26 | 158 | 3.2 | 4.8 | 0.00 | 0.00 | 0.00 | 39 | 1010.8 |
| 20260510002005 | 26 | 182 | 3.2 | 3.2 | 0.00 | 0.00 | 0.00 | 40 | 1010.8 |
| 20260510001502 | 26 | 186 | 4.8 | 6.4 | 0.00 | 0.00 | 0.00 | 38 | 1010.8 |
| 20260510001000 | 26 | 186 | 3.2 | 4.8 | 0.00 | 0.00 | 0.00 | 38 | 1010.7 |
| 20260510000456 | 26 | 215 | 4.8 | 6.4 | 0.00 | 0.00 | 0.00 | 38 | 1011.0 |
| 20260509235952 | 26 | 190 | 8.0 | 9.7 | 0.00 | 0.00 | 0.00 | 37 | 1010.9 |
| 20260509235449 | 26 | 189 | 3.2 | 4.8 | 0.00 | 0.00 | 0.00 | 39 | 1011.1 |
| 20260509234945 | 26 | 218 | 3.2 | 4.8 | 0.00 | 0.00 | 0.00 | 38 | 1011.0 |
| 20260509234442 | 26 | 194 | 3.2 | 4.8 | 0.00 | 0.00 | 0.00 | 39 | 1010.7 |
| 20260509233940 | 26 | 212 | 3.2 | 6.4 | 0.00 | 0.00 | 0.00 | 40 | 1011.0 |
| 20260509233437 | 27 | 263 | 3.2 | 6.4 | 0.00 | 0.00 | 0.00 | 40 | 1010.9 |
| 20260509232933 | 26 | 225 | 9.7 | 9.7 | 0.00 | 0.00 | 0.00 | 38 | 1011.0 |
| 20260509232431 | 26 | 205 | 8.0 | 12.9 | 0.00 | 0.00 | 0.00 | 36 | 1011.0 |
| 20260509231927 | 27 | 210 | 9.7 | 11.3 | 0.00 | 0.00 | 0.00 | 37 | 1011.0 |
| 20260509231424 | 27 | 245 | 6.4 | 11.3 | 0.00 | 0.00 | 0.00 | 37 | 1011.1 |
| 20260509230922 | 27 | 214 | 12.9 | 16.1 | 0.00 | 0.00 | 0.00 | 36 | 1011.0 |
| 20260509230418 | 27 | 254 | 6.4 | 8.0 | 0.00 | 0.00 | 0.00 | 37 | 1010.8 |
| 20260509225914 | 27 | 202 | 4.8 | 8.0 | 0.00 | 0.00 | 0.00 | 38 | 1010.8 |
| 20260509225411 | 27 | 222 | 8.0 | 16.1 | 0.00 | 0.00 | 0.00 | 40 | 1010.8 |
| 20260509224907 | 26 | 202 | 6.4 | 9.7 | 0.00 | 0.00 | 0.00 | 37 | 1010.9 |
| 20260509224403 | 27 | 192 | 9.7 | 12.9 | 0.00 | 0.00 | 0.00 | 38 | 1011.0 |
| 20260509223900 | 26 | 140 | 6.4 | 12.9 | 0.00 | 0.00 | 0.00 | 37 | 1010.8 |
| 20260509223356 | 26 | 101 | 8.0 | 14.5 | 0.00 | 0.00 | 0.00 | 37 | 1010.8 |
| 20260509222854 | 26 | 104 | 4.8 | 11.3 | 0.00 | 0.00 | 0.00 | 36 | 1010.9 |
| 20260509222354 | 26 | 147 | 9.7 | 16.1 | 0.00 | 0.00 | 0.00 | 36 | 1010.9 |
| 20260509221850 | 26 | 224 | 14.5 | 22.5 | 0.00 | 0.00 | 0.00 | 37 | 1010.7 |
| 20260509221348 | 27 | 202 | 11.3 | 17.7 | 0.00 | 0.00 | 0.00 | 39 | 1011.0 |
| 20260509220843 | 27 | 238 | 6.4 | 9.7 | 0.00 | 0.00 | 0.00 | 38 | 1010.7 |
| 20260509220339 | 27 | 249 | 3.2 | 8.0 | 0.00 | 0.00 | 0.00 | 34 | 1011.0 |
| 20260509215835 | 27 | 311 | 6.4 | 8.0 | 0.00 | 0.00 | 0.00 | 30 | 1010.9 |
| 20260509215332 | 27 | 312 | 14.5 | 17.7 | 0.00 | 0.00 | 0.00 | 31 | 1011.1 |
| 20260509214829 | 26 | 272 | 6.4 | 11.3 | 0.00 | 0.00 | 0.00 | 32 | 1011.0 |
| 20260509214326 | 26 | 260 | 14.5 | 19.3 | 0.00 | 0.00 | 0.00 | 34 | 1011.0 |
| 20260509213823 | 26 | 247 | 14.5 | 27.4 | 0.00 | 0.00 | 0.00 | 34 | 1011.0 |
| 20260509213318 | 27 | 278 | 12.9 | 16.1 | 0.00 | 0.00 | 0.00 | 35 | 1010.9 |
| 20260509212816 | 27 | 232 | 9.7 | 12.9 | 0.00 | 0.00 | 0.00 | 32 | 1011.0 |
| 20260509212313 | 27 | 226 | 8.0 | 8.0 | 0.00 | 0.00 | 0.00 | 33 | 1011.1 |
| 20260509211808 | 28 | 273 | 6.4 | 12.9 | 0.00 | 0.00 | 0.00 | 29 | 1011.2 |
| 20260509211304 | 27 | 131 | 3.2 | 4.8 | 0.00 | 0.00 | 0.00 | 30 | 1011.3 |
| 20260509210801 | 26 | 251 | 8.0 | 20.9 | 0.00 | 0.00 | 0.00 | 32 | 1011.3 |
| 20260509210259 | 27 | 260 | 11.3 | 16.1 | 0.00 | 0.00 | 0.00 | 33 | 1011.4 |
| 20260509205759 | 28 | 294 | 9.7 | 9.7 | 0.00 | 0.00 | 0.00 | 32 | 1011.3 |
| 20260509205254 | 28 | 229 | 6.4 | 6.4 | 0.00 | 0.00 | 0.00 | 31 | 1011.4 |
| 20260509204750 | 27 | 245 | 8.0 | 16.1 | 0.00 | 0.00 | 0.00 | 33 | 1011.4 |
| 20260509204247 | 27 | 226 | 16.1 | 16.1 | 0.00 | 0.00 | 0.00 | 32 | 1011.4 |
| 20260509203743 | 27 | 255 | 11.3 | 17.7 | 0.00 | 0.00 | 0.00 | 33 | 1011.3 |
| 20260509203241 | 27 | 313 | 3.2 | 11.3 | 0.00 | 0.00 | 0.00 | 31 | 1011.4 |
| 20260509202737 | 26 | 283 | 12.9 | 17.7 | 0.00 | 0.00 | 0.00 | 35 | 1011.5 |
| 20260509202233 | 27 | 299 | 17.7 | 19.3 | 0.00 | 0.00 | 0.00 | 38 | 1011.6 |
| 20260509201732 | 27 | 246 | 12.9 | 14.5 | 0.00 | 0.00 | 0.00 | 38 | 1011.7 |
| 20260509201229 | 27 | 239 | 9.7 | 9.7 | 0.00 | 0.00 | 0.00 | 37 | 1011.8 |
| 20260509200726 | 26 | 233 | 11.3 | 14.5 | 0.00 | 0.00 | 0.00 | 36 | 1011.4 |
| 20260509200221 | 26 | 252 | 16.1 | 19.3 | 0.00 | 0.00 | 0.00 | 36 | 1011.6 |
| 20260509195717 | 26 | 267 | 11.3 | 14.5 | 0.00 | 0.00 | 0.00 | 36 | 1011.8 |
| 20260509195213 | 26 | 236 | 19.3 | 20.9 | 0.00 | 0.00 | 0.00 | 36 | 1011.8 |
| 20260509194712 | 27 | 275 | 12.9 | 14.5 | 0.00 | 0.00 | 0.00 | 34 | 1011.7 |
| 20260509194209 | 26 | 281 | 6.4 | 14.5 | 0.00 | 0.00 | 0.00 | 36 | 1011.9 |
| 20260509193706 | 26 | 272 | 9.7 | 19.3 | 0.00 | 0.00 | 0.00 | 34 | 1012.0 |
| 20260509193201 | 26 | 251 | 12.9 | 20.9 | 0.00 | 0.00 | 0.00 | 34 | 1011.8 |
| 20260509192657 | 26 | 281 | 11.3 | 22.5 | 0.00 | 0.00 | 0.00 | 33 | 1011.9 |
| 20260509192158 | 26 | 235 | 14.5 | 24.1 | 0.00 | 0.00 | 0.00 | 32 | 1012.0 |
| 20260509191653 | 26 | 248 | 6.4 | 11.3 | 0.00 | 0.00 | 0.00 | 36 | 1011.8 |
| 20260509191150 | 26 | 261 | 17.7 | 35.4 | 0.00 | 0.00 | 0.00 | 39 | 1012.1 |
| 20260509190646 | 26 | 274 | 16.1 | 24.1 | 0.00 | 0.00 | 0.00 | 40 | 1012.0 |
| 20260509190143 | 26 | 232 | 16.1 | 20.9 | 0.00 | 0.00 | 0.00 | 36 | 1012.0 |
| 20260509185641 | 26 | 266 | 8.0 | 11.3 | 0.00 | 0.00 | 0.00 | 36 | 1012.1 |
| 20260509185137 | 26 | 257 | 12.9 | 17.7 | 0.00 | 0.00 | 0.00 | 39 | 1012.1 |
| 20260509184636 | 26 | 288 | 14.5 | 19.3 | 0.00 | 0.00 | 0.00 | 36 | 1012.0 |
| 20260509184132 | 26 | 297 | 11.3 | 20.9 | 0.00 | 0.00 | 0.00 | 33 | 1012.1 |
| 20260509183628 | 26 | 245 | 14.5 | 17.7 | 0.00 | 0.00 | 0.00 | 35 | 1012.0 |
| 20260509183124 | 26 | 288 | 6.4 | 25.7 | 0.00 | 0.00 | 0.00 | 37 | 1012.2 |
| 20260509182619 | 26 | 260 | 8.0 | 14.5 | 0.00 | 0.00 | 0.00 | 40 | 1012.2 |
| 20260509182117 | 26 | 271 | 14.5 | 17.7 | 0.00 | 0.00 | 0.00 | 41 | 1012.2 |
| 20260509181614 | 26 | 260 | 14.5 | 22.5 | 0.00 | 0.00 | 0.00 | 40 | 1012.4 |
| 20260509181112 | 26 | 314 | 12.9 | 19.3 | 0.00 | 0.00 | 0.00 | 36 | 1012.1 |
| 20260509180608 | 25 | 250 | 12.9 | 22.5 | 0.00 | 0.00 | 0.00 | 39 | 1012.2 |